createdAt,value
2017-03-16T00:07:14.892Z,1018.8
2017-03-16T00:17:26.081Z,1018.8
2017-03-16T00:27:37.395Z,1018.6
2017-03-16T00:37:48.739Z,1018.5
2017-03-16T00:48:00.042Z,1018.5
2017-03-16T00:58:11.426Z,1018.3
2017-03-16T01:08:22.789Z,1018.1
2017-03-16T01:18:34.137Z,1018
2017-03-16T01:28:45.490Z,1017.9
2017-03-16T01:38:56.874Z,1017.8
2017-03-16T01:49:08.280Z,1017.9
2017-03-16T01:59:19.658Z,1017.6
2017-03-16T02:09:31.027Z,1017.6
2017-03-16T02:19:42.426Z,1017.5
2017-03-16T02:29:53.800Z,1017.4
2017-03-16T02:40:05.331Z,1017.1
2017-03-16T02:50:16.569Z,1017.1
2017-03-16T03:00:27.917Z,1017.1
2017-03-16T03:10:39.243Z,1017.1
2017-03-16T03:20:50.585Z,1017
2017-03-16T03:31:01.900Z,1016.9
2017-03-16T03:41:13.237Z,1016.9
2017-03-16T03:51:24.577Z,1017
2017-03-16T04:01:35.944Z,1017
2017-03-16T04:11:47.313Z,1017
2017-03-16T04:21:58.694Z,1016.9
2017-03-16T04:32:10.124Z,1016.8
2017-03-16T04:42:21.550Z,1016.7
2017-03-16T04:52:32.974Z,1016.7
2017-03-16T05:02:44.405Z,1016.7
2017-03-16T05:12:55.834Z,1016.7
2017-03-16T05:23:07.263Z,1016.6
2017-03-16T05:33:18.689Z,1016.6
2017-03-16T05:43:30.116Z,1016.5
2017-03-16T05:53:41.570Z,1016.5
2017-03-16T06:03:53.040Z,1016.5
2017-03-16T06:14:04.387Z,1016.6
2017-03-16T06:24:15.565Z,1016.5
2017-03-16T06:34:26.691Z,1016.6
2017-03-16T06:44:37.780Z,1016.6
2017-03-16T06:54:48.702Z,1016.6
2017-03-16T07:04:59.476Z,1016.6
2017-03-16T07:15:10.082Z,1016.6
2017-03-16T07:25:20.446Z,1016.6
2017-03-16T07:35:30.605Z,1016.6
2017-03-16T07:45:40.564Z,1016.7
2017-03-16T07:55:50.365Z,1016.5
2017-03-16T08:06:00.105Z,1016.8
2017-03-16T08:16:09.570Z,1016.6
2017-03-16T08:26:18.958Z,1016.7
2017-03-16T08:36:28.237Z,1016.6
2017-03-16T08:46:37.338Z,1016.6
2017-03-16T08:56:46.315Z,1016.4
2017-03-16T09:06:55.274Z,1016.4
2017-03-16T09:17:04.206Z,1016.3
2017-03-16T09:27:13.071Z,1016.3
2017-03-16T09:37:21.833Z,1016.2
2017-03-16T09:47:30.538Z,1015.9
2017-03-16T09:57:39.270Z,1015.9
2017-03-16T10:07:47.952Z,1015.7
2017-03-16T10:17:56.624Z,1015.7
2017-03-16T10:28:05.278Z,1015.6
2017-03-16T10:38:13.853Z,1015.5
2017-03-16T10:48:22.330Z,1015.5
2017-03-16T10:58:30.844Z,1016.4
2017-03-16T11:08:39.455Z,1015.8
2017-03-16T11:18:48.054Z,1015.4
2017-03-16T11:28:56.651Z,1014.8
2017-03-16T11:39:05.148Z,1014.6
2017-03-16T11:49:13.551Z,1014.4
2017-03-16T11:59:22.118Z,1014.3
2017-03-16T12:09:30.674Z,1014.4
2017-03-16T12:19:39.146Z,1014
2017-03-16T12:29:47.562Z,1014.1
2017-03-16T12:39:55.930Z,1013.4
2017-03-16T12:50:04.228Z,1013.2
2017-03-16T13:00:12.439Z,1013
2017-03-16T13:10:20.605Z,1012.8
2017-03-16T13:20:28.704Z,1012.3
2017-03-16T13:30:36.844Z,1012.3
2017-03-16T13:40:44.977Z,1012.3
2017-03-16T13:50:53.120Z,1011.8
2017-03-16T14:01:01.299Z,1011.8
2017-03-16T14:11:09.314Z,1011.6
2017-03-16T14:21:17.375Z,1011.4
2017-03-16T14:31:25.412Z,1011.4
2017-03-16T14:41:33.538Z,1011.2
2017-03-16T14:51:41.636Z,1011
2017-03-16T15:01:49.722Z,1010.8
2017-03-16T15:11:57.862Z,1010.4
2017-03-16T15:22:06.271Z,1010.4
2017-03-16T15:32:14.802Z,1010.1
2017-03-16T15:42:23.394Z,1010.2
2017-03-16T15:52:31.875Z,1010
2017-03-16T16:02:40.418Z,1009.8
2017-03-16T16:12:49.270Z,1009.6
2017-03-16T16:22:58.323Z,1009.3
2017-03-16T16:33:07.493Z,1009.1
2017-03-16T16:43:16.769Z,1009.1
2017-03-16T16:53:26.143Z,1008.9
2017-03-16T17:03:35.662Z,1008.8
2017-03-16T17:13:45.361Z,1008.8
2017-03-16T17:23:54.992Z,1008.7
2017-03-16T17:34:04.800Z,1008.7
2017-03-16T17:44:14.668Z,1008.7
2017-03-16T17:54:24.611Z,1008.4
2017-03-16T18:04:34.632Z,1008.4
2017-03-16T18:14:44.764Z,1008.3
2017-03-16T18:24:54.930Z,1008.1
2017-03-16T18:35:05.047Z,1008.2
2017-03-16T18:45:15.186Z,1008
2017-03-16T18:55:25.330Z,1007.8
2017-03-16T19:05:35.473Z,1007.8
2017-03-16T19:15:45.604Z,1007.6
2017-03-16T19:25:55.804Z,1007.6
2017-03-16T19:36:06.014Z,1007.5
2017-03-16T19:46:16.157Z,1007.4
2017-03-16T19:56:26.332Z,1007.3
2017-03-16T20:06:36.594Z,1007.1
2017-03-16T20:16:46.864Z,1007
2017-03-16T20:26:57.125Z,1006.9
2017-03-16T20:37:07.452Z,1006.7
2017-03-16T20:47:17.825Z,1006.6
2017-03-16T20:57:28.446Z,1006.5
2017-03-16T21:07:38.624Z,1006.4
2017-03-16T21:17:49.064Z,1006.3
2017-03-16T21:27:59.458Z,1006.1
2017-03-16T21:38:09.848Z,1006
2017-03-16T21:48:20.250Z,1005.9
2017-03-16T21:58:30.731Z,1005.9
2017-03-16T22:08:41.239Z,1005.9
2017-03-16T22:18:51.703Z,1006
2017-03-16T22:29:02.109Z,1005.9
2017-03-16T22:39:12.573Z,1005.8
2017-03-16T22:49:23.085Z,1005.6
2017-03-16T22:59:33.602Z,1005.5
2017-03-16T23:09:44.148Z,1005.3
2017-03-16T23:19:54.684Z,1005.2
2017-03-16T23:30:05.211Z,1005
2017-03-16T23:40:15.723Z,1004.8
2017-03-16T23:50:26.230Z,1004.8
